createdAt,value
2018-03-14T00:00:55.794Z,1009.4
2018-03-14T00:02:04.917Z,1009.43
2018-03-14T00:03:13.745Z,1009.38
2018-03-14T00:04:22.676Z,1009.36
2018-03-14T00:05:31.504Z,1009.41
2018-03-14T00:06:40.332Z,1009.44
2018-03-14T00:07:49.159Z,1009.44
2018-03-14T00:08:57.986Z,1009.48
2018-03-14T00:10:07.223Z,1009.51
2018-03-14T00:11:16.056Z,1009.48
2018-03-14T00:12:24.886Z,1009.51
2018-03-14T00:13:34.025Z,1009.51
2018-03-14T00:14:43.170Z,1009.47
2018-03-14T00:15:52.003Z,1009.54
2018-03-14T00:17:00.838Z,1009.51
2018-03-14T00:18:09.664Z,1009.5
2018-03-14T00:19:18.535Z,1009.55
2018-03-14T00:20:27.321Z,1009.54
2018-03-14T00:21:36.452Z,1009.59
2018-03-14T00:22:45.281Z,1009.59
2018-03-14T00:23:54.110Z,1009.6
2018-03-14T00:25:02.939Z,1009.61
2018-03-14T00:26:12.062Z,1009.65
2018-03-14T00:27:21.192Z,1009.63
2018-03-14T00:28:30.023Z,1009.63
2018-03-14T00:29:38.851Z,1009.66
2018-03-14T00:30:47.683Z,1009.62
2018-03-14T00:31:56.508Z,1009.67
2018-03-14T00:33:05.336Z,1009.66
2018-03-14T00:34:14.164Z,1009.65
2018-03-14T00:35:23.278Z,1009.71
2018-03-14T00:36:32.106Z,1009.7
2018-03-14T00:37:40.935Z,1009.71
2018-03-14T00:38:49.761Z,1009.74
2018-03-14T00:39:58.590Z,1009.71
2018-03-14T00:41:07.420Z,1009.75
2018-03-14T00:42:16.252Z,1009.76
2018-03-14T00:43:25.078Z,1009.78
2018-03-14T00:44:33.956Z,1009.82
2018-03-14T00:45:42.784Z,1009.72
2018-03-14T00:46:51.905Z,1009.81
2018-03-14T00:48:00.735Z,1009.8
2018-03-14T00:49:09.562Z,1009.81
2018-03-14T00:50:18.491Z,1009.81
2018-03-14T00:51:27.320Z,1009.82
2018-03-14T00:52:36.151Z,1009.86
2018-03-14T00:53:44.979Z,1009.83
2018-03-14T00:54:53.807Z,1009.83
2018-03-14T00:56:02.937Z,1009.83
2018-03-14T00:57:11.765Z,1009.82
2018-03-14T00:58:20.594Z,1009.85
2018-03-14T00:59:29.423Z,1009.87
2018-03-14T01:00:38.253Z,1009.89
2018-03-14T01:01:47.282Z,1009.92
2018-03-14T01:02:56.403Z,1009.93
2018-03-14T01:04:05.511Z,1009.91
2018-03-14T01:05:14.340Z,1009.95
2018-03-14T01:06:23.167Z,1009.93
2018-03-14T01:07:31.994Z,1009.91
2018-03-14T01:08:40.824Z,1009.89
2018-03-14T01:09:49.651Z,1009.94
2018-03-14T01:10:58.479Z,1009.91
2018-03-14T01:12:07.307Z,1009.91
2018-03-14T01:13:16.494Z,1009.93
2018-03-14T01:14:25.325Z,1009.95
2018-03-14T01:15:34.159Z,1009.98
2018-03-14T01:16:42.979Z,1009.93
2018-03-14T01:17:51.808Z,1009.89
2018-03-14T01:19:00.686Z,1009.96
2018-03-14T01:20:09.514Z,1009.96
2018-03-14T01:21:18.368Z,1009.98
2018-03-14T01:22:27.173Z,1009.99
2018-03-14T01:23:35.999Z,1009.97
2018-03-14T01:24:44.981Z,1010.03
2018-03-14T01:25:53.811Z,1009.99
2018-03-14T01:27:02.639Z,1009.99
2018-03-14T01:28:12.042Z,1009.98
2018-03-14T01:29:20.872Z,1010.06
2018-03-14T01:30:29.850Z,1009.98
2018-03-14T01:31:38.683Z,1009.97
2018-03-14T01:32:47.819Z,1009.94
2018-03-14T01:33:56.651Z,1009.98
2018-03-14T01:35:05.481Z,1009.99
2018-03-14T01:36:14.410Z,1010
2018-03-14T01:37:23.533Z,1010.01
2018-03-14T01:38:32.362Z,1010.04
2018-03-14T01:39:41.191Z,1010.07
2018-03-14T01:40:50.021Z,1010.04
2018-03-14T01:41:59.003Z,1010.06
2018-03-14T01:43:07.831Z,1010.02
2018-03-14T01:44:16.972Z,1010.09
2018-03-14T01:45:25.800Z,1010.03
2018-03-14T01:46:34.628Z,1010.1
2018-03-14T01:47:43.859Z,1010.09
2018-03-14T01:48:52.688Z,1010.06
2018-03-14T01:50:01.515Z,1010.05
2018-03-14T01:51:10.344Z,1010.05
2018-03-14T01:52:19.455Z,1010.12
2018-03-14T01:53:28.388Z,1010.08
2018-03-14T01:54:37.216Z,1010.14
2018-03-14T01:55:46.047Z,1010.11
2018-03-14T01:56:54.872Z,1010.2
2018-03-14T01:58:03.707Z,1010.22
2018-03-14T01:59:12.686Z,1010.25
2018-03-14T02:00:21.513Z,1010.25
2018-03-14T02:01:30.342Z,1010.24
2018-03-14T02:02:39.172Z,1010.27
2018-03-14T02:03:48.002Z,1010.24
2018-03-14T02:04:56.928Z,1010.27
2018-03-14T02:06:06.374Z,1010.3
2018-03-14T02:07:15.204Z,1010.31
2018-03-14T02:08:24.031Z,1010.31
2018-03-14T02:09:32.860Z,1010.29
2018-03-14T02:10:41.790Z,1010.32
2018-03-14T02:11:50.614Z,1010.36
2018-03-14T02:12:59.445Z,1010.32
2018-03-14T02:14:08.273Z,1010.35
2018-03-14T02:15:17.102Z,1010.41
2018-03-14T02:16:26.031Z,1010.36
2018-03-14T02:17:34.860Z,1010.36
2018-03-14T02:18:43.692Z,1010.38
2018-03-14T02:19:52.518Z,1010.4
2018-03-14T02:21:01.347Z,1010.38
2018-03-14T02:22:10.222Z,1010.38
2018-03-14T02:23:19.052Z,1010.4
2018-03-14T02:24:27.884Z,1010.38
2018-03-14T02:25:36.711Z,1010.39
2018-03-14T02:26:45.541Z,1010.37
2018-03-14T02:27:54.572Z,1010.43
2018-03-14T02:29:03.401Z,1010.4
2018-03-14T02:30:12.555Z,1010.45
2018-03-14T02:31:21.384Z,1010.45
2018-03-14T02:32:30.214Z,1010.42
2018-03-14T02:33:39.093Z,1010.46
2018-03-14T02:34:48.206Z,1010.49
2018-03-14T02:35:57.036Z,1010.48
2018-03-14T02:37:05.861Z,1010.51
2018-03-14T02:38:14.692Z,1010.52
2018-03-14T02:39:23.519Z,1010.51
2018-03-14T02:40:32.631Z,1010.56
2018-03-14T02:41:41.462Z,1010.59
2018-03-14T02:42:50.291Z,1010.61
2018-03-14T02:43:59.117Z,1010.6
2018-03-14T02:45:07.996Z,1010.59
2018-03-14T02:46:16.824Z,1010.64
2018-03-14T02:47:25.653Z,1010.63
2018-03-14T02:48:34.483Z,1010.61
2018-03-14T02:49:43.311Z,1010.63
2018-03-14T02:50:52.241Z,1010.64
2018-03-14T02:52:01.072Z,1010.64
2018-03-14T02:53:09.897Z,1010.69
2018-03-14T02:54:18.726Z,1010.68
2018-03-14T02:55:27.554Z,1010.68
2018-03-14T02:56:36.483Z,1010.68
2018-03-14T02:57:45.312Z,1010.71
2018-03-14T02:58:54.141Z,1010.77
2018-03-14T03:00:02.969Z,1010.74
2018-03-14T03:01:11.799Z,1010.76
2018-03-14T03:02:20.878Z,1010.82
2018-03-14T03:03:29.706Z,1010.82
2018-03-14T03:04:38.543Z,1010.86
2018-03-14T03:05:47.368Z,1010.86
2018-03-14T03:06:56.196Z,1010.9
2018-03-14T03:08:05.172Z,1010.81
2018-03-14T03:09:14.005Z,1010.85
2018-03-14T03:10:22.830Z,1010.83
2018-03-14T03:11:31.659Z,1010.84
2018-03-14T03:12:40.488Z,1010.89
2018-03-14T03:13:49.316Z,1010.85
2018-03-14T03:14:58.144Z,1010.84
2018-03-14T03:16:06.973Z,1010.92
2018-03-14T03:17:15.802Z,1010.89
2018-03-14T03:18:24.904Z,1010.87
2018-03-14T03:19:33.735Z,1010.92
2018-03-14T03:20:42.563Z,1010.93
2018-03-14T03:21:51.400Z,1010.98
2018-03-14T03:23:00.228Z,1010.93
2018-03-14T03:24:09.058Z,1011.01
2018-03-14T03:25:17.936Z,1010.98
2018-03-14T03:26:26.765Z,1011
2018-03-14T03:27:35.595Z,1011.01
2018-03-14T03:28:44.421Z,1011.03
2018-03-14T03:29:53.252Z,1011
2018-03-14T03:31:02.382Z,1011.03
2018-03-14T03:32:11.213Z,1011.04
2018-03-14T03:33:20.041Z,1011.03
2018-03-14T03:34:28.872Z,1011.02
2018-03-14T03:35:37.981Z,1011.05
2018-03-14T03:36:46.908Z,1011.03
2018-03-14T03:37:56.014Z,1011.05
2018-03-14T03:39:04.844Z,1011.08
2018-03-14T03:40:13.672Z,1011.08
2018-03-14T03:41:22.502Z,1011.06
2018-03-14T03:42:31.332Z,1011.08
2018-03-14T03:43:40.162Z,1011.14
2018-03-14T03:44:48.989Z,1011.07
2018-03-14T03:45:57.817Z,1011.09
2018-03-14T03:47:06.647Z,1011.13
2018-03-14T03:48:15.527Z,1011.17
2018-03-14T03:49:24.356Z,1011.14
2018-03-14T03:50:33.184Z,1011.13
2018-03-14T03:51:42.015Z,1011.17
2018-03-14T03:52:51.121Z,1011.12
2018-03-14T03:54:00.101Z,1011.11
2018-03-14T03:55:08.927Z,1011.14
2018-03-14T03:56:18.309Z,1011.1
2018-03-14T03:57:27.138Z,1011.16
2018-03-14T03:58:35.964Z,1011.14
2018-03-14T03:59:44.843Z,1011.16
2018-03-14T04:00:53.673Z,1011.14
2018-03-14T04:02:02.501Z,1011.13
2018-03-14T04:03:11.332Z,1011.15
2018-03-14T04:04:20.153Z,1011.17
2018-03-14T04:05:29.132Z,1011.15
2018-03-14T04:06:37.959Z,1011.16
2018-03-14T04:07:47.067Z,1011.18
2018-03-14T04:08:56.173Z,1011.22
2018-03-14T04:10:04.999Z,1011.2
2018-03-14T04:11:14.344Z,1011.21
2018-03-14T04:12:23.173Z,1011.17
2018-03-14T04:13:32.002Z,1011.2
2018-03-14T04:14:40.832Z,1011.19
2018-03-14T04:15:49.661Z,1011.21
2018-03-14T04:16:58.638Z,1011.25
2018-03-14T04:18:07.467Z,1011.26
2018-03-14T04:19:16.298Z,1011.23
2018-03-14T04:20:25.128Z,1011.19
2018-03-14T04:21:34.014Z,1011.23
2018-03-14T04:22:42.884Z,1011.22
2018-03-14T04:23:51.716Z,1011.18
2018-03-14T04:25:00.544Z,1011.2
2018-03-14T04:26:09.378Z,1011.2
2018-03-14T04:27:18.204Z,1011.23
2018-03-14T04:28:27.033Z,1011.25
2018-03-14T04:29:36.137Z,1011.27
2018-03-14T04:30:44.965Z,1011.29
2018-03-14T04:31:53.794Z,1011.3
2018-03-14T04:33:02.622Z,1011.34
2018-03-14T04:34:11.834Z,1011.37
2018-03-14T04:35:20.656Z,1011.33
2018-03-14T04:36:29.764Z,1011.37
2018-03-14T04:37:38.595Z,1011.39
2018-03-14T04:38:47.424Z,1011.41
2018-03-14T04:39:56.553Z,1011.4
2018-03-14T04:41:05.385Z,1011.43
2018-03-14T04:42:14.211Z,1011.47
2018-03-14T04:43:23.040Z,1011.48
2018-03-14T04:44:32.146Z,1011.49
2018-03-14T04:45:41.027Z,1011.41
2018-03-14T04:46:49.856Z,1011.5
2018-03-14T04:47:58.685Z,1011.42
2018-03-14T04:49:07.513Z,1011.46
2018-03-14T04:50:16.340Z,1011.47
2018-03-14T04:51:25.225Z,1011.41
2018-03-14T04:52:34.335Z,1011.43
2018-03-14T04:53:43.166Z,1011.39
2018-03-14T04:54:52.000Z,1011.4
2018-03-14T04:56:00.826Z,1011.38
2018-03-14T04:57:09.708Z,1011.35
2018-03-14T04:58:18.812Z,1011.31
2018-03-14T04:59:27.928Z,1011.35
2018-03-14T05:00:36.757Z,1011.33
2018-03-14T05:01:45.585Z,1011.29
2018-03-14T05:02:54.451Z,1011.35
2018-03-14T05:04:03.245Z,1011.35
2018-03-14T05:05:12.075Z,1011.36
2018-03-14T05:06:20.902Z,1011.4
2018-03-14T05:07:29.735Z,1011.4
2018-03-14T05:08:38.614Z,1011.37
2018-03-14T05:09:47.442Z,1011.44
2018-03-14T05:10:56.272Z,1011.44
2018-03-14T05:12:05.100Z,1011.49
2018-03-14T05:13:13.931Z,1011.49
2018-03-14T05:14:22.814Z,1011.53
2018-03-14T05:15:31.638Z,1011.5
2018-03-14T05:16:41.022Z,1011.52
2018-03-14T05:17:49.850Z,1011.53
2018-03-14T05:18:58.678Z,1011.54
2018-03-14T05:20:07.560Z,1011.57
2018-03-14T05:21:16.388Z,1011.58
2018-03-14T05:22:25.221Z,1011.59
2018-03-14T05:23:34.050Z,1011.59
2018-03-14T05:24:42.878Z,1011.61
2018-03-14T05:25:52.009Z,1011.61
2018-03-14T05:27:00.840Z,1011.63
2018-03-14T05:28:09.669Z,1011.59
2018-03-14T05:29:18.498Z,1011.59
2018-03-14T05:30:27.327Z,1011.62
2018-03-14T05:31:36.257Z,1011.67
2018-03-14T05:32:45.086Z,1011.71
2018-03-14T05:33:54.190Z,1011.68
2018-03-14T05:35:03.022Z,1011.74
2018-03-14T05:36:12.128Z,1011.72
2018-03-14T05:37:21.108Z,1011.74
2018-03-14T05:38:29.935Z,1011.7
2018-03-14T05:39:38.765Z,1011.7
2018-03-14T05:40:47.597Z,1011.74
2018-03-14T05:41:56.432Z,1011.73
2018-03-14T05:43:05.690Z,1011.76
2018-03-14T05:44:14.518Z,1011.73
2018-03-14T05:45:23.349Z,1011.71
2018-03-14T05:46:32.453Z,1011.72
2018-03-14T05:47:41.296Z,1011.72
2018-03-14T05:48:50.163Z,1011.7
2018-03-14T05:49:58.996Z,1011.74
2018-03-14T05:51:08.096Z,1011.68
2018-03-14T05:52:16.923Z,1011.67
2018-03-14T05:53:25.754Z,1011.69
2018-03-14T05:54:34.733Z,1011.69
2018-03-14T05:55:43.562Z,1011.67
2018-03-14T05:56:52.393Z,1011.68
2018-03-14T05:58:01.242Z,1011.77
2018-03-14T05:59:10.357Z,1011.73
2018-03-14T06:00:19.187Z,1011.75
2018-03-14T06:01:28.300Z,1011.74
2018-03-14T06:02:37.130Z,1011.78
2018-03-14T06:03:45.957Z,1011.77
2018-03-14T06:04:54.784Z,1011.77
2018-03-14T06:06:03.614Z,1011.79
2018-03-14T06:07:12.445Z,1011.78
2018-03-14T06:08:21.274Z,1011.8
2018-03-14T06:09:30.103Z,1011.79
2018-03-14T06:10:38.935Z,1011.81
2018-03-14T06:11:47.765Z,1011.8
2018-03-14T06:12:56.595Z,1011.83
2018-03-14T06:14:05.427Z,1011.86
2018-03-14T06:15:14.262Z,1011.92
2018-03-14T06:16:23.129Z,1011.89
2018-03-14T06:17:31.920Z,1011.93
2018-03-14T06:18:41.027Z,1011.93
2018-03-14T06:19:49.885Z,1011.94
2018-03-14T06:20:59.015Z,1011.96
2018-03-14T06:22:07.935Z,1011.95
2018-03-14T06:23:17.036Z,1011.97
2018-03-14T06:24:26.491Z,1011.97
2018-03-14T06:25:35.798Z,1012.01
2018-03-14T06:26:44.726Z,1011.97
2018-03-14T06:27:53.627Z,1012.02
2018-03-14T06:29:02.565Z,1012.02
2018-03-14T06:30:11.396Z,1012.05
2018-03-14T06:31:20.499Z,1012.07
2018-03-14T06:32:29.333Z,1012.09
2018-03-14T06:33:38.440Z,1012.07
2018-03-14T06:34:47.269Z,1012.1
2018-03-14T06:35:56.107Z,1012.14
2018-03-14T06:37:05.078Z,1012.12
2018-03-14T06:38:13.910Z,1012.13
2018-03-14T06:39:22.739Z,1012.07
2018-03-14T06:40:31.572Z,1012.09
2018-03-14T06:41:40.400Z,1012.16
2018-03-14T06:42:49.333Z,1012.14
2018-03-14T06:43:58.163Z,1012.14
2018-03-14T06:45:06.995Z,1012.13
2018-03-14T06:46:15.825Z,1012.19
2018-03-14T06:47:24.653Z,1012.2
2018-03-14T06:48:34.062Z,1012.19
2018-03-14T06:49:42.892Z,1012.22
2018-03-14T06:50:51.722Z,1012.22
2018-03-14T06:52:00.851Z,1012.24
2018-03-14T06:53:09.678Z,1012.23
2018-03-14T06:54:18.886Z,1012.25
2018-03-14T06:55:27.714Z,1012.31
2018-03-14T06:56:36.869Z,1012.31
2018-03-14T06:57:45.698Z,1012.31
2018-03-14T06:58:54.526Z,1012.28
2018-03-14T07:00:03.507Z,1012.28
2018-03-14T07:01:12.338Z,1012.31
2018-03-14T07:02:21.164Z,1012.3
2018-03-14T07:03:29.994Z,1012.35
2018-03-14T07:04:38.826Z,1012.32
2018-03-14T07:05:47.756Z,1012.33
2018-03-14T07:06:56.681Z,1012.37
2018-03-14T07:08:06.312Z,1012.33
2018-03-14T07:09:16.147Z,1012.37
2018-03-14T07:10:25.930Z,1012.35
2018-03-14T07:11:35.550Z,1012.37
2018-03-14T07:12:44.853Z,1012.41
2018-03-14T07:13:54.605Z,1012.44
2018-03-14T07:15:04.200Z,1012.44
2018-03-14T07:16:14.360Z,1012.45
2018-03-14T07:17:24.003Z,1012.45
2018-03-14T07:18:33.109Z,1012.48
2018-03-14T07:19:41.940Z,1012.49
2018-03-14T07:20:50.768Z,1012.48
2018-03-14T07:21:59.598Z,1012.49
2018-03-14T07:23:08.479Z,1012.51
2018-03-14T07:24:17.309Z,1012.57
2018-03-14T07:25:26.140Z,1012.45
2018-03-14T07:26:34.966Z,1012.51
2018-03-14T07:27:43.796Z,1012.48
2018-03-14T07:28:52.831Z,1012.48
2018-03-14T07:30:02.214Z,1012.5
2018-03-14T07:31:11.321Z,1012.5
2018-03-14T07:32:20.147Z,1012.53
2018-03-14T07:33:28.978Z,1012.53
2018-03-14T07:34:38.008Z,1012.51
2018-03-14T07:35:46.839Z,1012.51
2018-03-14T07:36:55.675Z,1012.48
2018-03-14T07:38:04.497Z,1012.5
2018-03-14T07:39:13.338Z,1012.5
2018-03-14T07:40:22.419Z,1012.52
2018-03-14T07:41:31.251Z,1012.53
2018-03-14T07:42:40.081Z,1012.52
2018-03-14T07:43:48.911Z,1012.56
2018-03-14T07:44:57.744Z,1012.59
2018-03-14T07:46:06.871Z,1012.59
2018-03-14T07:47:15.699Z,1012.62
2018-03-14T07:48:24.532Z,1012.65
2018-03-14T07:49:33.363Z,1012.65
2018-03-14T07:50:42.196Z,1012.72
2018-03-14T07:51:51.131Z,1012.69
2018-03-14T07:52:59.954Z,1012.72
2018-03-14T07:54:08.785Z,1012.75
2018-03-14T07:55:17.615Z,1012.73
2018-03-14T07:56:26.448Z,1012.76
2018-03-14T07:57:35.280Z,1012.79
2018-03-14T07:58:44.111Z,1012.77
2018-03-14T07:59:52.941Z,1012.78
2018-03-14T08:01:01.771Z,1012.8
2018-03-14T08:02:10.885Z,1012.82
2018-03-14T08:03:19.806Z,1012.84
2018-03-14T08:04:28.638Z,1012.87
2018-03-14T08:05:37.475Z,1012.88
2018-03-14T08:06:46.300Z,1012.91
2018-03-14T08:07:55.405Z,1012.91
2018-03-14T08:09:04.336Z,1012.86
2018-03-14T08:10:13.167Z,1012.89
2018-03-14T08:11:22.000Z,1012.86
2018-03-14T08:12:30.832Z,1012.87
2018-03-14T08:13:39.789Z,1012.86
2018-03-14T08:14:48.500Z,1012.89
2018-03-14T08:15:57.332Z,1012.87
2018-03-14T08:17:06.162Z,1012.84
2018-03-14T08:18:15.004Z,1012.82
2018-03-14T08:19:23.827Z,1012.87
2018-03-14T08:20:32.708Z,1012.84
2018-03-14T08:21:41.537Z,1012.83
2018-03-14T08:22:50.643Z,1012.84
2018-03-14T08:23:59.473Z,1012.85
2018-03-14T08:25:08.305Z,1012.88
2018-03-14T08:26:17.288Z,1012.85
2018-03-14T08:27:26.118Z,1012.85
2018-03-14T08:28:34.949Z,1012.87
2018-03-14T08:29:43.783Z,1012.88
2018-03-14T08:30:52.611Z,1012.89
2018-03-14T08:32:01.743Z,1012.9
2018-03-14T08:33:10.578Z,1012.92
2018-03-14T08:34:19.689Z,1012.99
2018-03-14T08:35:28.854Z,1012.97
2018-03-14T08:36:37.686Z,1012.97
2018-03-14T08:37:46.667Z,1013.01
2018-03-14T08:38:55.498Z,1013.01
2018-03-14T08:40:04.330Z,1013.01
2018-03-14T08:41:13.163Z,1013.02
2018-03-14T08:42:21.994Z,1013.01
2018-03-14T08:43:30.876Z,1013.04
2018-03-14T08:44:39.710Z,1013.07
2018-03-14T08:45:48.541Z,1013.02
2018-03-14T08:46:57.373Z,1013.02
2018-03-14T08:48:06.206Z,1013.07
2018-03-14T08:49:15.037Z,1013.08
2018-03-14T08:50:23.933Z,1013.07
2018-03-14T08:51:32.699Z,1013.1
2018-03-14T08:52:41.533Z,1013.14
2018-03-14T08:53:50.365Z,1013.13
2018-03-14T08:54:59.248Z,1013.15
2018-03-14T08:56:08.080Z,1013.13
2018-03-14T08:57:16.910Z,1013.18
2018-03-14T08:58:25.744Z,1013.12
2018-03-14T08:59:34.651Z,1013.15
2018-03-14T09:00:43.861Z,1013.17
2018-03-14T09:01:52.976Z,1013.17
2018-03-14T09:03:02.113Z,1013.18
2018-03-14T09:04:10.919Z,1013.2
2018-03-14T09:05:19.754Z,1013.16
2018-03-14T09:06:28.961Z,1013.21
2018-03-14T09:07:37.793Z,1013.17
2018-03-14T09:08:46.625Z,1013.24
2018-03-14T09:09:55.734Z,1013.22
2018-03-14T09:11:04.568Z,1013.28
2018-03-14T09:12:14.202Z,1013.23
2018-03-14T09:13:23.308Z,1013.2
2018-03-14T09:14:32.140Z,1013.29
2018-03-14T09:15:40.974Z,1013.29
2018-03-14T09:16:49.806Z,1013.25
2018-03-14T09:17:58.639Z,1013.26
2018-03-14T09:19:07.472Z,1013.24
2018-03-14T09:20:16.581Z,1013.25
2018-03-14T09:21:25.453Z,1013.27
2018-03-14T09:22:34.245Z,1013.28
2018-03-14T09:23:43.179Z,1013.31
2018-03-14T09:24:52.012Z,1013.32
2018-03-14T09:26:00.846Z,1013.3
2018-03-14T09:27:09.960Z,1013.33
2018-03-14T09:28:19.344Z,1013.39
2018-03-14T09:29:28.279Z,1013.33
2018-03-14T09:30:37.112Z,1013.37
2018-03-14T09:31:45.988Z,1013.38
2018-03-14T09:32:54.779Z,1013.36
2018-03-14T09:34:03.612Z,1013.42
2018-03-14T09:35:12.597Z,1013.36
2018-03-14T09:36:21.434Z,1013.38
2018-03-14T09:37:30.267Z,1013.33
2018-03-14T09:38:39.099Z,1013.34
2018-03-14T09:39:47.961Z,1013.36
2018-03-14T09:40:57.017Z,1013.35
2018-03-14T09:42:05.850Z,1013.34
2018-03-14T09:43:14.684Z,1013.33
2018-03-14T09:44:23.515Z,1013.4
2018-03-14T09:45:32.345Z,1013.38
2018-03-14T09:46:41.428Z,1013.36
2018-03-14T09:47:50.544Z,1013.38
2018-03-14T09:48:59.379Z,1013.4
2018-03-14T09:50:08.211Z,1013.42
2018-03-14T09:51:17.045Z,1013.43
2018-03-14T09:52:26.029Z,1013.43
2018-03-14T09:53:35.137Z,1013.46
2018-03-14T09:54:43.973Z,1013.44
2018-03-14T09:55:53.080Z,1013.41
2018-03-14T09:57:01.914Z,1013.45
2018-03-14T09:58:11.049Z,1013.46
2018-03-14T09:59:20.158Z,1013.43
2018-03-14T10:00:28.991Z,1013.49
2018-03-14T10:01:37.826Z,1013.45
2018-03-14T10:02:46.660Z,1013.44
2018-03-14T10:03:55.599Z,1013.48
2018-03-14T10:05:04.428Z,1013.46
2018-03-14T10:06:13.264Z,1013.46
2018-03-14T10:07:22.095Z,1013.43
2018-03-14T10:08:30.929Z,1013.42
2018-03-14T10:09:39.813Z,1013.43
2018-03-14T10:10:48.646Z,1013.48
2018-03-14T10:11:57.755Z,1013.41
2018-03-14T10:13:06.587Z,1013.42
2018-03-14T10:14:15.417Z,1013.37
2018-03-14T10:15:24.406Z,1013.4
2018-03-14T10:16:33.510Z,1013.37
2018-03-14T10:17:42.625Z,1013.33
2018-03-14T10:18:51.456Z,1013.35
2018-03-14T10:20:00.289Z,1013.31
2018-03-14T10:21:09.556Z,1013.33
2018-03-14T10:22:18.413Z,1013.29
2018-03-14T10:23:27.225Z,1013.34
2018-03-14T10:24:36.058Z,1013.36
2018-03-14T10:25:44.969Z,1013.37
2018-03-14T10:26:53.876Z,1013.35
2018-03-14T10:28:02.709Z,1013.37
2018-03-14T10:29:11.545Z,1013.32
2018-03-14T10:30:20.378Z,1013.34
2018-03-14T10:31:29.209Z,1013.31
2018-03-14T10:32:38.095Z,1013.3
2018-03-14T10:33:46.928Z,1013.33
2018-03-14T10:34:55.765Z,1013.4
2018-03-14T10:36:04.593Z,1013.35
2018-03-14T10:37:13.428Z,1013.35
2018-03-14T10:38:22.262Z,1013.4
2018-03-14T10:39:31.099Z,1013.38
2018-03-14T10:40:39.933Z,1013.39
2018-03-14T10:41:48.774Z,1013.43
2018-03-14T10:42:57.606Z,1013.43
2018-03-14T10:44:06.589Z,1013.45
2018-03-14T10:45:15.419Z,1013.46
2018-03-14T10:46:24.255Z,1013.47
2018-03-14T10:47:33.089Z,1013.5
2018-03-14T10:48:41.922Z,1013.43
2018-03-14T10:49:50.853Z,1013.44
2018-03-14T10:50:59.689Z,1013.44
2018-03-14T10:52:08.524Z,1013.43
2018-03-14T10:53:17.630Z,1013.4
2018-03-14T10:54:26.463Z,1013.4
2018-03-14T10:55:35.395Z,1013.39
2018-03-14T10:56:44.229Z,1013.38
2018-03-14T10:57:53.062Z,1013.37
2018-03-14T10:59:01.897Z,1013.39
2018-03-14T11:00:10.730Z,1013.43
2018-03-14T11:01:19.713Z,1013.46
2018-03-14T11:02:28.547Z,1013.46
2018-03-14T11:03:37.382Z,1013.43
2018-03-14T11:04:46.495Z,1013.45
2018-03-14T11:05:55.328Z,1013.47
2018-03-14T11:07:04.587Z,1013.43
2018-03-14T11:08:13.421Z,1013.47
2018-03-14T11:09:22.259Z,1013.48
2018-03-14T11:10:31.094Z,1013.51
2018-03-14T11:11:39.926Z,1013.51
2018-03-14T11:12:48.760Z,1013.53
2018-03-14T11:13:57.594Z,1013.53
2018-03-14T11:15:06.709Z,1013.55
2018-03-14T11:16:15.543Z,1013.52
2018-03-14T11:17:24.376Z,1013.51
2018-03-14T11:18:33.410Z,1013.49
2018-03-14T11:19:42.241Z,1013.51
2018-03-14T11:20:51.074Z,1013.5
2018-03-14T11:21:59.909Z,1013.49
2018-03-14T11:23:09.025Z,1013.49
2018-03-14T11:24:17.955Z,1013.47
2018-03-14T11:25:26.789Z,1013.51
2018-03-14T11:26:35.619Z,1013.51
2018-03-14T11:27:44.454Z,1013.51
2018-03-14T11:28:53.286Z,1013.5
2018-03-14T11:30:02.423Z,1013.49
2018-03-14T11:31:11.530Z,1013.5
2018-03-14T11:32:20.364Z,1013.46
2018-03-14T11:33:29.469Z,1013.5
2018-03-14T11:34:38.581Z,1013.47
2018-03-14T11:35:47.565Z,1013.49
2018-03-14T11:36:56.402Z,1013.5
2018-03-14T11:38:05.235Z,1013.49
2018-03-14T11:39:14.070Z,1013.5
2018-03-14T11:40:23.459Z,1013.5
2018-03-14T11:41:32.670Z,1013.52
2018-03-14T11:42:41.503Z,1013.5
2018-03-14T11:43:50.338Z,1013.55
2018-03-14T11:44:59.179Z,1013.57
2018-03-14T11:46:08.011Z,1013.51
2018-03-14T11:47:16.848Z,1013.54
2018-03-14T11:48:25.679Z,1013.55
2018-03-14T11:49:34.512Z,1013.48
2018-03-14T11:50:43.343Z,1013.5
2018-03-14T11:51:52.176Z,1013.49
2018-03-14T11:53:01.311Z,1013.51
2018-03-14T11:54:10.145Z,1013.51
2018-03-14T11:55:18.979Z,1013.48
2018-03-14T11:56:27.812Z,1013.5
2018-03-14T11:57:36.646Z,1013.45
2018-03-14T11:58:45.805Z,1013.5
2018-03-14T11:59:54.639Z,1013.51
2018-03-14T12:01:03.472Z,1013.5
2018-03-14T12:02:12.304Z,1013.54
2018-03-14T12:03:21.138Z,1013.55
2018-03-14T12:04:30.021Z,1013.54
2018-03-14T12:05:38.857Z,1013.52
2018-03-14T12:06:47.689Z,1013.46
2018-03-14T12:07:56.522Z,1013.49
2018-03-14T12:09:05.356Z,1013.5
2018-03-14T12:10:14.394Z,1013.44
2018-03-14T12:11:23.172Z,1013.4
2018-03-14T12:12:32.008Z,1013.39
2018-03-14T12:13:40.836Z,1013.35
2018-03-14T12:14:49.668Z,1013.38
2018-03-14T12:15:58.552Z,1013.39
2018-03-14T12:17:07.390Z,1013.38
2018-03-14T12:18:16.870Z,1013.38
2018-03-14T12:19:25.708Z,1013.39
2018-03-14T12:20:34.820Z,1013.38
2018-03-14T12:21:43.853Z,1013.43
2018-03-14T12:22:52.695Z,1013.4
2018-03-14T12:24:01.805Z,1013.38
2018-03-14T12:25:10.638Z,1013.37
2018-03-14T12:26:19.762Z,1013.36
2018-03-14T12:27:28.629Z,1013.33
2018-03-14T12:28:37.461Z,1013.34
2018-03-14T12:29:46.293Z,1013.29
2018-03-14T12:30:55.125Z,1013.24
2018-03-14T12:32:04.233Z,1013.28
2018-03-14T12:33:13.167Z,1013.23
2018-03-14T12:34:22.001Z,1013.26
2018-03-14T12:35:30.833Z,1013.26
2018-03-14T12:36:39.667Z,1013.28
2018-03-14T12:37:48.502Z,1013.29
2018-03-14T12:38:57.383Z,1013.25
2018-03-14T12:40:06.217Z,1013.22
2018-03-14T12:41:15.049Z,1013.28
2018-03-14T12:42:23.882Z,1013.28
2018-03-14T12:43:32.716Z,1013.23
2018-03-14T12:44:41.698Z,1013.21
2018-03-14T12:45:50.568Z,1013.22
2018-03-14T12:46:59.365Z,1013.21
2018-03-14T12:48:08.472Z,1013.21
2018-03-14T12:49:17.583Z,1013.18
2018-03-14T12:50:26.572Z,1013.15
2018-03-14T12:51:35.399Z,1013.15
2018-03-14T12:52:44.233Z,1013.12
2018-03-14T12:53:53.066Z,1013.11
2018-03-14T12:55:01.899Z,1013.12
2018-03-14T12:56:10.773Z,1013.08
2018-03-14T12:57:19.568Z,1013.1
2018-03-14T12:58:28.395Z,1013.09
2018-03-14T12:59:37.230Z,1013.13
2018-03-14T13:00:46.065Z,1013.1
2018-03-14T13:01:55.571Z,1013.04
2018-03-14T13:03:04.679Z,1013.04
2018-03-14T13:04:13.516Z,1013.04
2018-03-14T13:05:22.620Z,1013.01
2018-03-14T13:06:31.452Z,1013.02
2018-03-14T13:07:40.384Z,1013.01
2018-03-14T13:08:49.218Z,1013.02
2018-03-14T13:09:58.049Z,1013.02
2018-03-14T13:11:06.884Z,1013.01
2018-03-14T13:12:15.716Z,1013.03
2018-03-14T13:13:24.600Z,1013.01
2018-03-14T13:14:33.433Z,1012.99
2018-03-14T13:15:42.267Z,1013.02
2018-03-14T13:16:51.099Z,1013.03
2018-03-14T13:17:59.931Z,1013.01
2018-03-14T13:19:09.068Z,1013
2018-03-14T13:20:17.899Z,1013.01
2018-03-14T13:21:26.766Z,1013.01
2018-03-14T13:22:35.564Z,1013.03
2018-03-14T13:23:44.414Z,1012.97
2018-03-14T13:24:53.397Z,1012.99
2018-03-14T13:26:02.231Z,1012.94
2018-03-14T13:27:11.063Z,1013.01
2018-03-14T13:28:19.898Z,1013
2018-03-14T13:29:28.741Z,1013
2018-03-14T13:30:38.151Z,1012.98
2018-03-14T13:31:46.984Z,1012.96
2018-03-14T13:32:56.096Z,1012.94
2018-03-14T13:34:04.928Z,1012.99
2018-03-14T13:35:14.039Z,1012.96
2018-03-14T13:36:23.070Z,1012.93
2018-03-14T13:37:31.905Z,1012.95
2018-03-14T13:38:40.737Z,1012.97
2018-03-14T13:39:49.571Z,1013
2018-03-14T13:40:58.403Z,1012.97
2018-03-14T13:42:08.099Z,1012.96
2018-03-14T13:43:16.933Z,1013
2018-03-14T13:44:25.766Z,1013.01
2018-03-14T13:45:34.600Z,1012.94
2018-03-14T13:46:43.433Z,1012.92
2018-03-14T13:47:52.268Z,1012.92
2018-03-14T13:49:01.096Z,1012.87
2018-03-14T13:50:09.931Z,1012.84
2018-03-14T13:51:18.767Z,1012.86
2018-03-14T13:52:27.879Z,1012.85
2018-03-14T13:53:37.092Z,1012.83
2018-03-14T13:54:46.200Z,1012.81
2018-03-14T13:55:55.033Z,1012.79
2018-03-14T13:57:03.864Z,1012.74